sensor_id;sensor_type;location;lat;lon;timestamp;pressure;altitude;pressure_sealevel;temperature;humidity
13952;BME280;39535;52.192;9.886;2023-01-30T00:00:28;100452.47;;;2.57;94.09
13952;BME280;39535;52.192;9.886;2023-01-30T00:02:56;100419.00;;;2.58;94.20
13952;BME280;39535;52.192;9.886;2023-01-30T00:05:23;100390.56;;;2.51;94.54
13952;BME280;39535;52.192;9.886;2023-01-30T00:07:49;100373.56;;;2.64;94.39
13952;BME280;39535;52.192;9.886;2023-01-30T00:10:16;100370.00;;;2.55;94.36
13952;BME280;39535;52.192;9.886;2023-01-30T00:12:42;100349.53;;;2.69;94.04
13952;BME280;39535;52.192;9.886;2023-01-30T00:15:09;100328.94;;;2.69;93.96
13952;BME280;39535;52.192;9.886;2023-01-30T00:17:35;100331.63;;;2.78;93.81
13952;BME280;39535;52.192;9.886;2023-01-30T00:20:04;100330.69;;;2.73;93.08
13952;BME280;39535;52.192;9.886;2023-01-30T00:22:30;100349.63;;;2.77;92.90
13952;BME280;39535;52.192;9.886;2023-01-30T00:24:56;100340.22;;;2.77;92.80
13952;BME280;39535;52.192;9.886;2023-01-30T00:27:23;100374.50;;;2.72;93.09
13952;BME280;39535;52.192;9.886;2023-01-30T00:29:49;100360.75;;;2.71;92.81
13952;BME280;39535;52.192;9.886;2023-01-30T00:32:15;100381.28;;;2.65;93.20
13952;BME280;39535;52.192;9.886;2023-01-30T00:34:41;100379.50;;;2.59;93.29
13952;BME280;39535;52.192;9.886;2023-01-30T00:37:09;100377.97;;;2.74;93.24
13952;BME280;39535;52.192;9.886;2023-01-30T00:39:35;100370.28;;;2.78;93.27
13952;BME280;39535;52.192;9.886;2023-01-30T00:42:02;100363.38;;;2.76;93.22
13952;BME280;39535;52.192;9.886;2023-01-30T00:44:46;100381.44;;;2.79;93.14
13952;BME280;39535;52.192;9.886;2023-01-30T00:47:30;100360.84;;;2.81;93.04
13952;BME280;39535;52.192;9.886;2023-01-30T00:49:56;100341.09;;;2.80;93.77
13952;BME280;39535;52.192;9.886;2023-01-30T00:52:24;100315.41;;;2.90;93.67
13952;BME280;39535;52.192;9.886;2023-01-30T00:54:50;100310.31;;;2.95;93.34
13952;BME280;39535;52.192;9.886;2023-01-30T00:57:17;100296.50;;;2.91;93.22
13952;BME280;39535;52.192;9.886;2023-01-30T00:59:43;100279.28;;;2.87;93.59
13952;BME280;39535;52.192;9.886;2023-01-30T01:02:09;100265.63;;;2.96;93.13
13952;BME280;39535;52.192;9.886;2023-01-30T01:04:36;100276.84;;;3.01;93.48
13952;BME280;39535;52.192;9.886;2023-01-30T01:07:07;100275.16;;;3.02;93.37
13952;BME280;39535;52.192;9.886;2023-01-30T01:09:35;100251.91;;;2.98;93.65
13952;BME280;39535;52.192;9.886;2023-01-30T01:12:02;100253.59;;;2.96;93.76
13952;BME280;39535;52.192;9.886;2023-01-30T01:14:28;100218.31;;;2.91;94.07
13952;BME280;39535;52.192;9.886;2023-01-30T01:16:54;100205.53;;;3.03;94.26
13952;BME280;39535;52.192;9.886;2023-01-30T01:19:21;100212.44;;;3.09;93.90
13952;BME280;39535;52.192;9.886;2023-01-30T01:21:47;100226.22;;;3.11;93.88
13952;BME280;39535;52.192;9.886;2023-01-30T01:24:14;100235.66;;;3.07;94.37
13952;BME280;39535;52.192;9.886;2023-01-30T01:26:42;100227.88;;;3.03;94.59
13952;BME280;39535;52.192;9.886;2023-01-30T01:29:11;100214.09;;;2.99;94.94
13952;BME280;39535;52.192;9.886;2023-01-30T01:31:37;100214.16;;;3.04;95.60
13952;BME280;39535;52.192;9.886;2023-01-30T01:34:04;100216.69;;;3.01;95.52
13952;BME280;39535;52.192;9.886;2023-01-30T01:36:30;100197.75;;;2.98;95.96
13952;BME280;39535;52.192;9.886;2023-01-30T01:49:25;100054.22;;;2.96;98.82
13952;BME280;39535;52.192;9.886;2023-01-30T01:51:56;100026.75;;;3.03;99.21
13952;BME280;39535;52.192;9.886;2023-01-30T01:54:28;99994.06;;;2.97;100.00
13952;BME280;39535;52.192;9.886;2023-01-30T01:57:00;99958.03;;;3.11;99.60
13952;BME280;39535;52.192;9.886;2023-01-30T01:59:31;99934.81;;;3.06;99.74
13952;BME280;39535;52.192;9.886;2023-01-30T02:02:02;99940.00;;;3.14;99.50
13952;BME280;39535;52.192;9.886;2023-01-30T02:04:33;99917.66;;;3.10;99.42
13952;BME280;39535;52.192;9.886;2023-01-30T02:07:20;99928.84;;;3.18;99.80
13952;BME280;39535;52.192;9.886;2023-01-30T02:09:47;99947.69;;;3.05;100.00
13952;BME280;39535;52.192;9.886;2023-01-30T02:12:16;99912.47;;;3.02;100.00
13952;BME280;39535;52.192;9.886;2023-01-30T02:14:42;99880.66;;;3.00;100.00
13952;BME280;39535;52.192;9.886;2023-01-30T02:17:09;99877.22;;;3.03;100.00
13952;BME280;39535;52.192;9.886;2023-01-30T02:19:46;99865.22;;;3.09;100.00
13952;BME280;39535;52.192;9.886;2023-01-30T02:22:51;99885.00;;;3.12;100.00
13952;BME280;39535;52.192;9.886;2023-01-30T02:25:45;99870.34;;;2.94;100.00
13952;BME280;39535;52.192;9.886;2023-01-30T02:28:43;99857.47;;;3.12;100.00
13952;BME280;39535;52.192;9.886;2023-01-30T02:31:26;99884.13;;;3.14;100.00
13952;BME280;39535;52.192;9.886;2023-01-30T02:34:08;99891.03;;;3.25;100.00
13952;BME280;39535;52.192;9.886;2023-01-30T02:36:45;99876.38;;;3.14;100.00
13952;BME280;39535;52.192;9.886;2023-01-30T02:39:21;99860.09;;;3.29;100.00
13952;BME280;39535;52.192;9.886;2023-01-30T02:41:56;99870.44;;;3.37;100.00
13952;BME280;39535;52.192;9.886;2023-01-30T02:44:31;99864.38;;;3.43;100.00
13952;BME280;39535;52.192;9.886;2023-01-30T02:47:03;99880.72;;;3.32;100.00
13952;BME280;39535;52.192;9.886;2023-01-30T02:49:37;99873.84;;;3.42;100.00
13952;BME280;39535;52.192;9.886;2023-01-30T02:52:06;99865.25;;;3.46;100.00
13952;BME280;39535;52.192;9.886;2023-01-30T02:54:34;99861.84;;;3.55;100.00
13952;BME280;39535;52.192;9.886;2023-01-30T02:57:00;99883.34;;;3.55;100.00
13952;BME280;39535;52.192;9.886;2023-01-30T02:59:29;99891.06;;;3.60;100.00
13952;BME280;39535;52.192;9.886;2023-01-30T03:02:20;99874.72;;;3.56;100.00
13952;BME280;39535;52.192;9.886;2023-01-30T03:05:04;99859.25;;;3.52;100.00
13952;BME280;39535;52.192;9.886;2023-01-30T03:07:42;99864.41;;;3.53;100.00
13952;BME280;39535;52.192;9.886;2023-01-30T03:10:17;99860.09;;;3.62;100.00
13952;BME280;39535;52.192;9.886;2023-01-30T03:12:51;99856.66;;;3.66;100.00
13952;BME280;39535;52.192;9.886;2023-01-30T03:15:24;99873.03;;;3.71;100.00
13952;BME280;39535;52.192;9.886;2023-01-30T03:17:55;99862.69;;;3.62;100.00
13952;BME280;39535;52.192;9.886;2023-01-30T03:20:22;99866.13;;;3.68;100.00
13952;BME280;39535;52.192;9.886;2023-01-30T03:22:49;99879.03;;;3.74;100.00
13952;BME280;39535;52.192;9.886;2023-01-30T03:25:18;99868.72;;;3.77;100.00
13952;BME280;39535;52.192;9.886;2023-01-30T03:27:46;99855.81;;;3.70;100.00
13952;BME280;39535;52.192;9.886;2023-01-30T03:30:14;99851.50;;;3.72;100.00
13952;BME280;39535;52.192;9.886;2023-01-30T03:32:40;99830.84;;;3.76;100.00
13952;BME280;39535;52.192;9.886;2023-01-30T03:35:08;99815.38;;;3.81;100.00
13952;BME280;39535;52.192;9.886;2023-01-30T03:37:35;99806.78;;;3.73;100.00
13952;BME280;39535;52.192;9.886;2023-01-30T03:40:02;99794.69;;;3.80;100.00
13952;BME280;39535;52.192;9.886;2023-01-30T03:42:28;99789.53;;;3.76;100.00
13952;BME280;39535;52.192;9.886;2023-01-30T03:44:55;99767.16;;;3.80;100.00
13952;BME280;39535;52.192;9.886;2023-01-30T03:47:21;99744.81;;;3.77;100.00
13952;BME280;39535;52.192;9.886;2023-01-30T03:49:47;99741.38;;;3.69;100.00
13952;BME280;39535;52.192;9.886;2023-01-30T03:52:15;99702.63;;;3.78;100.00
13952;BME280;39535;52.192;9.886;2023-01-30T03:54:41;99700.03;;;3.86;100.00
13952;BME280;39535;52.192;9.886;2023-01-30T03:57:08;99705.22;;;3.80;100.00
13952;BME280;39535;52.192;9.886;2023-01-30T03:59:34;99698.38;;;3.73;100.00
13952;BME280;39535;52.192;9.886;2023-01-30T04:02:00;99706.09;;;3.77;100.00
13952;BME280;39535;52.192;9.886;2023-01-30T04:04:27;99704.41;;;3.67;100.00
13952;BME280;39535;52.192;9.886;2023-01-30T04:06:53;99694.03;;;3.76;100.00
13952;BME280;39535;52.192;9.886;2023-01-30T04:09:21;99680.28;;;3.77;100.00
13952;BME280;39535;52.192;9.886;2023-01-30T04:11:47;99680.28;;;3.81;100.00
13952;BME280;39535;52.192;9.886;2023-01-30T04:14:14;99686.28;;;3.81;100.00
13952;BME280;39535;52.192;9.886;2023-01-30T04:16:40;99681.97;;;3.85;100.00
13952;BME280;39535;52.192;9.886;2023-01-30T04:19:06;99672.50;;;3.84;100.00
13952;BME280;39535;52.192;9.886;2023-01-30T04:21:33;99672.50;;;3.87;100.00
13952;BME280;39535;52.192;9.886;2023-01-30T04:23:59;99656.13;;;3.91;100.00
13952;BME280;39535;52.192;9.886;2023-01-30T04:26:27;99672.53;;;3.76;100.00
13952;BME280;39535;52.192;9.886;2023-01-30T04:28:53;99652.75;;;3.75;100.00
13952;BME280;39535;52.192;9.886;2023-01-30T04:31:20;99652.75;;;3.73;100.00
13952;BME280;39535;52.192;9.886;2023-01-30T04:33:46;99645.84;;;3.78;100.00
13952;BME280;39535;52.192;9.886;2023-01-30T04:36:12;99644.09;;;3.84;100.00
13952;BME280;39535;52.192;9.886;2023-01-30T04:38:39;99645.84;;;3.83;100.00
13952;BME280;39535;52.192;9.886;2023-01-30T04:41:05;99638.91;;;3.90;100.00
13952;BME280;39535;52.192;9.886;2023-01-30T04:43:33;99645.84;;;3.82;100.00
13952;BME280;39535;52.192;9.886;2023-01-30T04:45:59;99647.56;;;3.81;100.00
13952;BME280;39535;52.192;9.886;2023-01-30T04:48:25;99649.28;;;3.84;100.00
13952;BME280;39535;52.192;9.886;2023-01-30T04:50:54;99650.13;;;3.86;100.00
13952;BME280;39535;52.192;9.886;2023-01-30T04:53:21;99628.63;;;3.84;100.00
13952;BME280;39535;52.192;9.886;2023-01-30T04:55:48;99651.81;;;3.88;100.00
13952;BME280;39535;52.192;9.886;2023-01-30T04:58:15;99638.03;;;3.94;100.00
13952;BME280;39535;52.192;9.886;2023-01-30T05:00:44;99644.94;;;3.96;100.00
13952;BME280;39535;52.192;9.886;2023-01-30T05:03:11;99637.16;;;3.98;100.00
13952;BME280;39535;52.192;9.886;2023-01-30T05:05:37;99645.78;;;3.97;100.00
13952;BME280;39535;52.192;9.886;2023-01-30T05:08:04;99635.41;;;4.00;100.00
13952;BME280;39535;52.192;9.886;2023-01-30T05:10:30;99664.69;;;4.01;100.00
13952;BME280;39535;52.192;9.886;2023-01-30T05:13:00;99636.28;;;3.99;100.00
13952;BME280;39535;52.192;9.886;2023-01-30T05:15:26;99630.25;;;4.03;100.00
13952;BME280;39535;52.192;9.886;2023-01-30T05:17:54;99620.72;;;4.08;100.00
13952;BME280;39535;52.192;9.886;2023-01-30T05:20:21;99637.97;;;4.08;100.00
13952;BME280;39535;52.192;9.886;2023-01-30T05:22:47;99637.09;;;4.06;100.00
13952;BME280;39535;52.192;9.886;2023-01-30T05:25:13;99631.06;;;4.08;100.00
13952;BME280;39535;52.192;9.886;2023-01-30T05:27:40;99624.19;;;4.10;100.00
13952;BME280;39535;52.192;9.886;2023-01-30T05:30:07;99622.44;;;4.14;100.00
13952;BME280;39535;52.192;9.886;2023-01-30T05:32:34;99619.81;;;4.22;100.00
13952;BME280;39535;52.192;9.886;2023-01-30T05:35:02;99612.09;;;4.14;100.00
13952;BME280;39535;52.192;9.886;2023-01-30T05:37:28;99621.63;;;4.09;100.00
13952;BME280;39535;52.192;9.886;2023-01-30T05:39:54;99626.75;;;4.15;100.00
13952;BME280;39535;52.192;9.886;2023-01-30T05:42:21;99636.22;;;4.13;100.00
13952;BME280;39535;52.192;9.886;2023-01-30T05:44:47;99637.91;;;4.15;100.00
13952;BME280;39535;52.192;9.886;2023-01-30T05:47:13;99637.88;;;4.25;100.00
13952;BME280;39535;52.192;9.886;2023-01-30T05:49:40;99644.78;;;4.24;100.00
13952;BME280;39535;52.192;9.886;2023-01-30T05:52:08;99647.31;;;4.30;100.00
13952;BME280;39535;52.192;9.886;2023-01-30T05:54:34;99655.06;;;4.27;100.00
13952;BME280;39535;52.192;9.886;2023-01-30T05:57:01;99654.25;;;4.21;100.00
13952;BME280;39535;52.192;9.886;2023-01-30T05:59:27;99657.69;;;4.18;100.00
13952;BME280;39535;52.192;9.886;2023-01-30T06:01:53;99644.78;;;4.21;100.00
13952;BME280;39535;52.192;9.886;2023-01-30T06:04:20;99651.66;;;4.22;100.00
13952;BME280;39535;52.192;9.886;2023-01-30T06:06:47;99655.16;;;4.15;100.00
13952;BME280;39535;52.192;9.886;2023-01-30T06:09:15;99661.13;;;4.20;100.00
13952;BME280;39535;52.192;9.886;2023-01-30T06:11:42;99662.00;;;4.21;100.00
13952;BME280;39535;52.192;9.886;2023-01-30T06:14:08;99653.38;;;4.23;100.00
13952;BME280;39535;52.192;9.886;2023-01-30T06:16:34;99657.69;;;4.18;100.00
13952;BME280;39535;52.192;9.886;2023-01-30T06:19:00;99649.97;;;4.16;100.00
13952;BME280;39535;52.192;9.886;2023-01-30T06:21:27;99651.69;;;4.16;100.00
13952;BME280;39535;52.192;9.886;2023-01-30T06:23:53;99650.84;;;4.14;100.00
13952;BME280;39535;52.192;9.886;2023-01-30T06:26:21;99643.97;;;4.14;100.00
13952;BME280;39535;52.192;9.886;2023-01-30T06:28:47;99633.59;;;4.16;100.00
13952;BME280;39535;52.192;9.886;2023-01-30T06:31:13;99625.91;;;4.08;100.00
13952;BME280;39535;52.192;9.886;2023-01-30T06:33:40;99618.09;;;4.17;100.00
13952;BME280;39535;52.192;9.886;2023-01-30T06:36:08;99628.44;;;4.19;100.00
13952;BME280;39535;52.192;9.886;2023-01-30T06:38:34;99623.22;;;4.27;100.00
13952;BME280;39535;52.192;9.886;2023-01-30T06:41:01;99638.69;;;4.31;100.00
13952;BME280;39535;52.192;9.886;2023-01-30T06:43:28;99651.56;;;4.41;100.00
13952;BME280;39535;52.192;9.886;2023-01-30T06:45:57;99675.63;;;4.47;100.00
13952;BME280;39535;52.192;9.886;2023-01-30T06:48:23;99707.47;;;4.52;100.00
13952;BME280;39535;52.192;9.886;2023-01-30T06:50:50;99729.84;;;4.55;100.00
13952;BME280;39535;52.192;9.886;2023-01-30T06:53:16;99747.09;;;4.51;100.00
13952;BME280;39535;52.192;9.886;2023-01-30T06:55:42;99766.91;;;4.52;100.00
13952;BME280;39535;52.192;9.886;2023-01-30T06:58:11;99752.28;;;4.45;100.00
13952;BME280;39535;52.192;9.886;2023-01-30T07:00:41;99747.16;;;4.42;100.00
13952;BME280;39535;52.192;9.886;2023-01-30T07:03:09;99733.34;;;4.45;100.00
13952;BME280;39535;52.192;9.886;2023-01-30T07:05:36;99735.94;;;4.42;100.00
13952;BME280;39535;52.192;9.886;2023-01-30T07:08:03;99717.88;;;4.40;100.00
13952;BME280;39535;52.192;9.886;2023-01-30T07:10:29;99717.84;;;4.42;100.00
13952;BME280;39535;52.192;9.886;2023-01-30T07:12:56;99725.56;;;4.51;100.00
13952;BME280;39535;52.192;9.886;2023-01-30T07:15:23;99750.53;;;4.55;100.00
13952;BME280;39535;52.192;9.886;2023-01-30T07:17:50;99764.31;;;4.54;100.00
13952;BME280;39535;52.192;9.886;2023-01-30T07:20:17;99796.16;;;4.59;100.00
13952;BME280;39535;52.192;9.886;2023-01-30T07:22:48;99854.69;;;4.72;100.00
13952;BME280;39535;52.192;9.886;2023-01-30T07:25:15;99877.97;;;4.74;100.00
13952;BME280;39535;52.192;9.886;2023-01-30T07:27:41;99876.22;;;4.73;100.00
13952;BME280;39535;52.192;9.886;2023-01-30T07:30:08;99924.47;;;4.78;100.00
13952;BME280;39535;52.192;9.886;2023-01-30T07:32:35;99937.41;;;4.77;100.00
13952;BME280;39535;52.192;9.886;2023-01-30T07:35:03;99955.53;;;4.72;99.41
13952;BME280;39535;52.192;9.886;2023-01-30T07:37:29;99946.03;;;4.71;99.97
13952;BME280;39535;52.192;9.886;2023-01-30T07:39:56;99956.34;;;4.81;99.98
13952;BME280;39535;52.192;9.886;2023-01-30T07:42:22;99949.44;;;4.80;100.00
13952;BME280;39535;52.192;9.886;2023-01-30T07:44:48;99951.16;;;4.85;99.49
13952;BME280;39535;52.192;9.886;2023-01-30T07:47:15;99982.25;;;4.70;98.78
13952;BME280;39535;52.192;9.886;2023-01-30T07:49:44;99983.94;;;4.71;98.87
13952;BME280;39535;52.192;9.886;2023-01-30T07:52:11;100000.31;;;4.71;97.65
13952;BME280;39535;52.192;9.886;2023-01-30T07:54:38;100007.22;;;4.74;97.66
13952;BME280;39535;52.192;9.886;2023-01-30T07:57:04;100003.75;;;4.73;97.87
13952;BME280;39535;52.192;9.886;2023-01-30T07:59:30;99994.31;;;4.66;98.03
13952;BME280;39535;52.192;9.886;2023-01-30T08:01:57;100008.94;;;4.73;97.18
13952;BME280;39535;52.192;9.886;2023-01-30T08:04:23;100003.78;;;4.78;96.73
13952;BME280;39535;52.192;9.886;2023-01-30T08:06:49;100005.50;;;4.74;97.31
13952;BME280;39535;52.192;9.886;2023-01-30T08:09:17;99993.44;;;4.66;97.93
13952;BME280;39535;52.192;9.886;2023-01-30T08:11:43;99982.25;;;4.59;98.01
13952;BME280;39535;52.192;9.886;2023-01-30T08:14:10;100009.78;;;4.75;96.20
13952;BME280;39535;52.192;9.886;2023-01-30T08:16:36;100060.63;;;4.80;94.54
13952;BME280;39535;52.192;9.886;2023-01-30T08:19:03;100053.75;;;4.82;95.03
13952;BME280;39535;52.192;9.886;2023-01-30T08:21:30;100058.94;;;4.82;94.86
13952;BME280;39535;52.192;9.886;2023-01-30T08:23:56;100052.88;;;4.90;96.07
13952;BME280;39535;52.192;9.886;2023-01-30T08:26:24;100067.53;;;4.85;94.94
13952;BME280;39535;52.192;9.886;2023-01-30T08:28:50;100059.78;;;4.88;94.90
13952;BME280;39535;52.192;9.886;2023-01-30T08:31:16;100089.06;;;4.87;94.15
13952;BME280;39535;52.192;9.886;2023-01-30T08:33:43;100116.66;;;4.96;92.99
13952;BME280;39535;52.192;9.886;2023-01-30T08:36:09;100145.09;;;5.04;92.18
13952;BME280;39535;52.192;9.886;2023-01-30T08:38:36;100169.22;;;5.10;91.28
13952;BME280;39535;52.192;9.886;2023-01-30T08:41:03;100192.50;;;5.07;90.24
13952;BME280;39535;52.192;9.886;2023-01-30T08:43:32;100227.88;;;5.17;88.86
13952;BME280;39535;52.192;9.886;2023-01-30T08:45:58;100264.09;;;5.10;88.49
13952;BME280;39535;52.192;9.886;2023-01-30T08:48:25;100272.72;;;5.06;87.79
13952;BME280;39535;52.192;9.886;2023-01-30T08:50:52;100294.25;;;5.11;87.38
13952;BME280;39535;52.192;9.886;2023-01-30T08:53:18;100302.91;;;5.21;87.28
13952;BME280;39535;52.192;9.886;2023-01-30T08:55:44;100307.22;;;5.14;87.27
13952;BME280;39535;52.192;9.886;2023-01-30T08:58:11;100312.41;;;5.22;87.27
13952;BME280;39535;52.192;9.886;2023-01-30T09:00:39;100339.16;;;5.25;85.65
13952;BME280;39535;52.192;9.886;2023-01-30T09:03:08;100340.00;;;5.32;86.76
13952;BME280;39535;52.192;9.886;2023-01-30T09:05:36;100328.78;;;5.21;87.97
13952;BME280;39535;52.192;9.886;2023-01-30T09:08:03;100308.94;;;5.18;87.86
13952;BME280;39535;52.192;9.886;2023-01-30T09:10:29;100332.25;;;5.26;85.87
13952;BME280;39535;52.192;9.886;2023-01-30T09:12:56;100360.72;;;5.26;84.79
13952;BME280;39535;52.192;9.886;2023-01-30T09:15:22;100405.56;;;5.31;83.59
13952;BME280;39535;52.192;9.886;2023-01-30T09:17:51;100424.56;;;5.30;82.14
13952;BME280;39535;52.192;9.886;2023-01-30T09:20:17;100431.47;;;5.34;83.02
13952;BME280;39535;52.192;9.886;2023-01-30T09:22:45;100440.94;;;5.30;83.20
13952;BME280;39535;52.192;9.886;2023-01-30T09:25:12;100437.50;;;5.34;83.14
13952;BME280;39535;52.192;9.886;2023-01-30T09:27:38;100415.09;;;5.40;83.80
13952;BME280;39535;52.192;9.886;2023-01-30T09:30:09;100423.69;;;5.37;82.71
13952;BME280;39535;52.192;9.886;2023-01-30T09:32:36;100425.44;;;5.33;82.80
13952;BME280;39535;52.192;9.886;2023-01-30T09:35:04;100428.88;;;5.37;83.05
13952;BME280;39535;52.192;9.886;2023-01-30T09:37:30;100430.59;;;5.36;82.54
13952;BME280;39535;52.192;9.886;2023-01-30T09:39:56;100470.31;;;5.48;81.11
13952;BME280;39535;52.192;9.886;2023-01-30T09:42:44;100479.81;;;5.46;80.78
13952;BME280;39535;52.192;9.886;2023-01-30T09:45:26;100482.38;;;5.49;81.72
13952;BME280;39535;52.192;9.886;2023-01-30T09:48:05;100475.50;;;5.46;81.53
13952;BME280;39535;52.192;9.886;2023-01-30T09:50:47;100482.41;;;5.52;81.14
13952;BME280;39535;52.192;9.886;2023-01-30T09:53:21;100513.47;;;5.56;79.55
13952;BME280;39535;52.192;9.886;2023-01-30T09:55:51;100529.91;;;5.63;77.82
13952;BME280;39535;52.192;9.886;2023-01-30T09:58:19;100556.66;;;5.61;78.09
13952;BME280;39535;52.192;9.886;2023-01-30T10:00:47;100557.50;;;5.56;79.78
13952;BME280;39535;52.192;9.886;2023-01-30T10:03:16;100550.59;;;5.55;79.65
13952;BME280;39535;52.192;9.886;2023-01-30T10:05:47;100544.56;;;5.58;79.60
13952;BME280;39535;52.192;9.886;2023-01-30T10:08:23;100511.78;;;5.66;80.67
13952;BME280;39535;52.192;9.886;2023-01-30T10:11:00;100510.06;;;5.65;79.76
13952;BME280;39535;52.192;9.886;2023-01-30T10:13:41;100510.91;;;5.63;79.33
13952;BME280;39535;52.192;9.886;2023-01-30T10:16:12;100497.06;;;5.53;79.22
13952;BME280;39535;52.192;9.886;2023-01-30T10:18:55;100522.97;;;5.56;79.10
13952;BME280;39535;52.192;9.886;2023-01-30T10:21:33;100521.22;;;5.50;79.16
13952;BME280;39535;52.192;9.886;2023-01-30T10:24:14;100461.66;;;5.33;83.55
13952;BME280;39535;52.192;9.886;2023-01-30T10:26:43;100375.34;;;5.21;83.00
13952;BME280;39535;52.192;9.886;2023-01-30T10:29:14;100386.59;;;5.24;82.27
13952;BME280;39535;52.192;9.886;2023-01-30T10:31:44;100391.78;;;5.36;81.30
13952;BME280;39535;52.192;9.886;2023-01-30T10:34:17;100418.53;;;5.46;80.50
13952;BME280;39535;52.192;9.886;2023-01-30T10:36:49;100425.44;;;5.52;80.26
13952;BME280;39535;52.192;9.886;2023-01-30T10:39:21;100425.47;;;5.55;80.41
13952;BME280;39535;52.192;9.886;2023-01-30T10:41:54;100449.63;;;5.65;79.44
13952;BME280;39535;52.192;9.886;2023-01-30T10:44:22;100446.19;;;5.76;80.78
13952;BME280;39535;52.192;9.886;2023-01-30T10:47:07;100460.84;;;5.68;79.00
13952;BME280;39535;52.192;9.886;2023-01-30T10:49:42;100474.69;;;5.72;78.01
13952;BME280;39535;52.192;9.886;2023-01-30T10:52:23;100472.97;;;5.69;78.35
13952;BME280;39535;52.192;9.886;2023-01-30T10:55:00;100485.91;;;5.77;77.25
13952;BME280;39535;52.192;9.886;2023-01-30T10:57:42;100460.88;;;5.70;78.30
13952;BME280;39535;52.192;9.886;2023-01-30T11:00:18;100436.66;;;5.52;79.53
13952;BME280;39535;52.192;9.886;2023-01-30T11:02:57;100436.66;;;5.48;80.51
13952;BME280;39535;52.192;9.886;2023-01-30T11:05:25;100366.72;;;5.25;83.88
13952;BME280;39535;52.192;9.886;2023-01-30T11:07:54;100256.28;;;4.74;88.21
13952;BME280;39535;52.192;9.886;2023-01-30T11:10:22;100145.97;;;4.76;91.01
13952;BME280;39535;52.192;9.886;2023-01-30T11:12:51;100101.13;;;4.96;90.38
13952;BME280;39535;52.192;9.886;2023-01-30T11:15:20;100094.19;;;5.07;89.51
13952;BME280;39535;52.192;9.886;2023-01-30T11:17:49;100131.28;;;5.22;87.09
13952;BME280;39535;52.192;9.886;2023-01-30T11:20:18;100170.91;;;5.44;85.96
13952;BME280;39535;52.192;9.886;2023-01-30T11:22:47;100207.09;;;5.53;84.43
13952;BME280;39535;52.192;9.886;2023-01-30T11:25:18;100264.06;;;5.57;81.75
13952;BME280;39535;52.192;9.886;2023-01-30T11:27:52;100289.97;;;5.64;81.32
13952;BME280;39535;52.192;9.886;2023-01-30T11:30:20;100332.25;;;5.75;79.55
13952;BME280;39535;52.192;9.886;2023-01-30T11:32:48;100373.69;;;5.89;80.17
13952;BME280;39535;52.192;9.886;2023-01-30T11:35:26;100395.25;;;5.92;79.87
13952;BME280;39535;52.192;9.886;2023-01-30T11:38:11;100385.75;;;5.74;81.43
13952;BME280;39535;52.192;9.886;2023-01-30T11:40:39;100368.50;;;5.66;81.67
13952;BME280;39535;52.192;9.886;2023-01-30T11:43:10;100354.69;;;5.61;80.79
13952;BME280;39535;52.192;9.886;2023-01-30T11:45:39;100338.28;;;5.82;82.59
13952;BME280;39535;52.192;9.886;2023-01-30T11:48:12;100329.66;;;5.63;82.12
13952;BME280;39535;52.192;9.886;2023-01-30T11:50:42;100323.63;;;5.64;80.91
13952;BME280;39535;52.192;9.886;2023-01-30T11:53:17;100346.91;;;5.68;80.91
13952;BME280;39535;52.192;9.886;2023-01-30T11:55:46;100346.91;;;5.76;80.80
13952;BME280;39535;52.192;9.886;2023-01-30T11:58:13;100322.72;;;5.88;80.63
13952;BME280;39535;52.192;9.886;2023-01-30T12:00:42;100346.91;;;5.91;81.37
13952;BME280;39535;52.192;9.886;2023-01-30T12:03:15;100317.56;;;5.91;80.43
13952;BME280;39535;52.192;9.886;2023-01-30T12:05:44;100312.34;;;6.17;80.71
13952;BME280;39535;52.192;9.886;2023-01-30T12:08:26;100351.19;;;6.23;78.79
13952;BME280;39535;52.192;9.886;2023-01-30T12:10:55;100371.09;;;6.16;79.71
13952;BME280;39535;52.192;9.886;2023-01-30T12:13:29;100353.81;;;5.83;81.07
13952;BME280;39535;52.192;9.886;2023-01-30T12:16:05;100286.47;;;5.83;81.48
13952;BME280;39535;52.192;9.886;2023-01-30T12:18:37;100293.38;;;5.80;82.35
13952;BME280;39535;52.192;9.886;2023-01-30T12:21:10;100286.50;;;5.75;83.25
13952;BME280;39535;52.192;9.886;2023-01-30T12:23:42;100243.34;;;5.64;84.23
13952;BME280;39535;52.192;9.886;2023-01-30T12:26:15;100176.03;;;5.54;86.26
13952;BME280;39535;52.192;9.886;2023-01-30T12:28:47;100170.94;;;5.31;86.28
13952;BME280;39535;52.192;9.886;2023-01-30T12:31:19;100113.16;;;5.22;87.95
13952;BME280;39535;52.192;9.886;2023-01-30T12:33:47;100105.41;;;5.22;87.79
13952;BME280;39535;52.192;9.886;2023-01-30T12:36:23;100046.72;;;5.27;89.48
13952;BME280;39535;52.192;9.886;2023-01-30T12:38:56;100040.75;;;5.14;89.31
13952;BME280;39535;52.192;9.886;2023-01-30T12:41:43;100049.34;;;5.17;89.69
13952;BME280;39535;52.192;9.886;2023-01-30T12:44:26;100037.28;;;5.10;89.90
13952;BME280;39535;52.192;9.886;2023-01-30T12:47:07;100048.50;;;5.03;91.06
13952;BME280;39535;52.192;9.886;2023-01-30T12:49:48;99987.38;;;4.81;92.79
13952;BME280;39535;52.192;9.886;2023-01-30T12:52:37;99940.03;;;4.68;95.20
13952;BME280;39535;52.192;9.886;2023-01-30T12:55:20;99916.78;;;4.57;96.12
13952;BME280;39535;52.192;9.886;2023-01-30T12:57:52;99887.53;;;4.41;97.20
13952;BME280;39535;52.192;9.886;2023-01-30T13:00:37;99844.56;;;4.12;98.99
13952;BME280;39535;52.192;9.886;2023-01-30T13:03:18;99819.59;;;4.11;100.00
13952;BME280;39535;52.192;9.886;2023-01-30T13:05:51;99781.75;;;4.03;100.00
13952;BME280;39535;52.192;9.886;2023-01-30T13:08:32;99749.91;;;4.01;100.00
13952;BME280;39535;52.192;9.886;2023-01-30T13:11:11;99738.78;;;3.82;100.00
13952;BME280;39535;52.192;9.886;2023-01-30T13:13:47;99722.44;;;3.73;100.00
13952;BME280;39535;52.192;9.886;2023-01-30T13:16:23;99721.59;;;3.68;100.00
13952;BME280;39535;52.192;9.886;2023-01-30T13:18:55;99709.56;;;3.64;100.00
13952;BME280;39535;52.192;9.886;2023-01-30T13:21:30;99703.53;;;3.73;100.00
13952;BME280;39535;52.192;9.886;2023-01-30T13:24:11;99699.19;;;3.83;100.00